Time;durP1;ratioP1;P1;durP2;ratioP2;P2;SDS_P1;SDS_P2;PMS_P1;PMS_P2;Temp;Humidity;BMP_temperature;BMP_pressure;BME280_temperature;BME280_humidity;BME280_pressure;Samples;Min_cycle;Max_cycle;Signal;HPM_P1;HPM_P2
2022/06/11 00:01:17;;;;;;;17.50;12.82;;;;;;;;;;1706524;83;21031;-70
2022/06/11 00:03:44;;;;;;;16.48;10.03;;;;;;;;;;1724412;83;21626;-69
2022/06/11 00:06:11;;;;;;;15.45;10.08;;;;;;;;;;1678449;83;21091;-69
2022/06/11 00:08:38;;;;;;;15.75;10.30;;;;;;;;;;1714607;83;21037;-69
2022/06/11 00:11:05;;;;;;;13.83;9.48;;;;;;;;;;1706197;84;21050;-69
2022/06/11 00:13:33;;;;;;;14.38;10.75;;;;;;;;;;1700658;83;21047;-69
2022/06/11 00:16:01;;;;;;;13.68;10.78;;;;;;;;;;1696226;84;21130;-69
2022/06/11 00:18:29;;;;;;;13.13;9.78;;;;;;;;;;1706474;83;21098;-68
2022/06/11 00:20:55;;;;;;;12.43;10.23;;;;;;;;;;1725155;83;20988;-68
2022/06/11 00:23:21;;;;;;;11.97;9.13;;;;;;;;;;1724822;83;21028;-69
2022/06/11 00:25:47;;;;;;;14.50;10.40;;;;;;;;;;1722396;83;22116;-68
2022/06/11 00:28:13;;;;;;;14.87;9.25;;;;;;;;;;1719701;83;21074;-69
2022/06/11 00:30:40;;;;;;;14.00;10.23;;;;;;;;;;1711884;83;21123;-69
2022/06/11 00:33:06;;;;;;;15.95;10.28;;;;;;;;;;1696474;84;21098;-69
2022/06/11 00:35:33;;;;;;;14.03;10.45;;;;;;;;;;1714757;83;21027;-69
2022/06/11 00:37:59;;;;;;;13.68;9.90;;;;;;;;;;1724641;83;21059;-69
2022/06/11 00:40:26;;;;;;;11.75;9.68;;;;;;;;;;1704201;83;21035;-69
2022/06/11 00:42:53;;;;;;;13.93;10.68;;;;;;;;;;1725354;83;21583;-69
2022/06/11 00:45:33;;;;;;;16.97;10.70;;;;;;;;;;1724799;83;21591;-69
2022/06/11 00:47:59;;;;;;;13.38;11.35;;;;;;;;;;1700924;83;21016;-70
2022/06/11 00:50:27;;;;;;;14.35;9.28;;;;;;;;;;1724834;83;21527;-68
2022/06/11 00:52:55;;;;;;;12.45;9.33;;;;;;;;;;1723863;83;21079;-68
2022/06/11 00:55:26;;;;;;;14.98;9.98;;;;;;;;;;1709488;83;21024;-68
2022/06/11 00:57:55;;;;;;;12.63;8.85;;;;;;;;;;1680220;84;21590;-69
2022/06/11 01:00:26;;;;;;;15.18;9.63;;;;;;;;;;1690000;85;21094;-69
2022/06/11 01:03:04;;;;;;;12.78;10.20;;;;;;;;;;1708691;80;73499;31
2022/06/11 01:05:31;;;;;;;12.80;9.30;;;;;;;;;;1644416;86;21055;-68
2022/06/11 01:08:17;;;;;;;15.43;10.53;;;;;;;;;;1625103;88;21109;-68
2022/06/11 01:10:57;;;;;;;14.47;10.15;;;;;;;;;;1652314;87;21011;-68
2022/06/11 01:13:41;;;;;;;14.43;9.95;;;;;;;;;;1627596;86;21107;-68
2022/06/11 01:16:12;;;;;;;11.25;8.68;;;;;;;;;;1599360;90;21051;-69
2022/06/11 01:18:40;;;;;;;12.15;9.33;;;;;;;;;;1598378;90;21659;-69
2022/06/11 01:21:20;;;;;;;13.32;9.70;;;;;;;;;;1615179;88;21623;-69
2022/06/11 01:23:48;;;;;;;13.30;9.43;;;;;;;;;;1625451;86;21067;-69
2022/06/11 01:26:34;;;;;;;14.30;9.98;;;;;;;;;;1677737;85;21087;-69
2022/06/11 01:29:20;;;;;;;14.73;9.23;;;;;;;;;;1648533;87;21066;-68
2022/06/11 01:31:54;;;;;;;13.25;9.85;;;;;;;;;;1648830;86;21102;-69
2022/06/11 01:34:22;;;;;;;13.18;9.58;;;;;;;;;;1668005;85;21573;-69
2022/06/11 01:36:50;;;;;;;14.60;10.05;;;;;;;;;;1678760;85;21586;-69
2022/06/11 01:39:26;;;;;;;14.70;10.05;;;;;;;;;;1666006;85;21116;-69
2022/06/11 01:42:07;;;;;;;10.38;8.50;;;;;;;;;;1648783;86;21293;-69
2022/06/11 01:44:37;;;;;;;13.18;8.35;;;;;;;;;;1668757;85;21095;-69
2022/06/11 01:47:03;;;;;;;13.83;9.53;;;;;;;;;;1666000;85;20996;-69
2022/06/11 01:49:33;;;;;;;15.35;10.45;;;;;;;;;;1672127;86;21059;-69
2022/06/11 01:52:01;;;;;;;13.03;9.83;;;;;;;;;;1654189;85;21107;-68
2022/06/11 01:54:39;;;;;;;13.43;9.63;;;;;;;;;;1657526;85;21055;-69
2022/06/11 01:57:07;;;;;;;14.75;9.95;;;;;;;;;;1669420;86;21063;-69
2022/06/11 01:59:52;;;;;;;14.93;9.48;;;;;;;;;;1668910;86;21040;-68
2022/06/11 02:02:37;;;;;;;13.68;9.23;;;;;;;;;;1654518;86;21058;-68
2022/06/11 02:05:11;;;;;;;13.00;9.63;;;;;;;;;;1678434;84;21555;-69
2022/06/11 02:07:44;;;;;;;15.00;9.20;;;;;;;;;;1671185;86;21017;-69
2022/06/11 02:10:13;;;;;;;13.58;9.35;;;;;;;;;;1668013;86;21123;-69
2022/06/11 02:12:58;;;;;;;13.60;9.78;;;;;;;;;;1664125;86;21131;-70
2022/06/11 02:15:27;;;;;;;11.73;9.58;;;;;;;;;;1694776;84;21028;-70
2022/06/11 02:17:55;;;;;;;13.05;9.43;;;;;;;;;;1705451;84;21599;-69
2022/06/11 02:20:23;;;;;;;13.53;9.90;;;;;;;;;;1692055;84;21070;-69
2022/06/11 02:22:54;;;;;;;13.35;10.48;;;;;;;;;;1674390;86;21547;-69
2022/06/11 02:25:22;;;;;;;13.90;8.50;;;;;;;;;;1694952;84;21075;-70
2022/06/11 02:27:49;;;;;;;12.85;9.05;;;;;;;;;;1676193;84;21020;-70
2022/06/11 02:30:17;;;;;;;11.60;8.40;;;;;;;;;;1669649;86;21059;-69
2022/06/11 02:32:44;;;;;;;14.23;8.70;;;;;;;;;;1661234;86;21051;-69
2022/06/11 02:35:12;;;;;;;12.63;9.13;;;;;;;;;;1691889;84;21102;-69
2022/06/11 02:37:40;;;;;;;12.63;8.93;;;;;;;;;;1672632;86;21112;-69
2022/06/11 02:40:08;;;;;;;12.10;8.68;;;;;;;;;;1670683;86;21628;-69
2022/06/11 02:42:34;;;;;;;14.58;8.53;;;;;;;;;;1671783;85;21057;-69
2022/06/11 02:45:00;;;;;;;11.65;9.28;;;;;;;;;;1687504;84;21052;-69
2022/06/11 02:47:26;;;;;;;15.18;9.05;;;;;;;;;;1703019;84;21153;-69
2022/06/11 02:49:52;;;;;;;11.78;8.78;;;;;;;;;;1702913;84;21087;-69
2022/06/11 02:52:19;;;;;;;13.78;9.08;;;;;;;;;;1695879;84;21040;-70
2022/06/11 02:54:47;;;;;;;13.85;9.23;;;;;;;;;;1658225;84;21127;-70
2022/06/11 02:57:14;;;;;;;16.30;10.28;;;;;;;;;;1670513;86;21295;-69
2022/06/11 02:59:41;;;;;;;12.35;8.90;;;;;;;;;;1670445;86;21119;-70
2022/06/11 03:02:07;;;;;;;15.45;9.80;;;;;;;;;;1669736;86;21555;-70
2022/06/11 03:04:34;;;;;;;11.63;8.95;;;;;;;;;;1681646;84;21087;-70
2022/06/11 03:07:00;;;;;;;15.32;9.20;;;;;;;;;;1688063;84;21083;-70
2022/06/11 03:09:27;;;;;;;14.63;9.25;;;;;;;;;;1670475;86;21091;-70
2022/06/11 03:11:54;;;;;;;13.20;9.13;;;;;;;;;;1670458;86;21567;-69
2022/06/11 03:14:22;;;;;;;16.90;9.65;;;;;;;;;;1669249;84;21071;-69
2022/06/11 03:16:50;;;;;;;15.78;9.75;;;;;;;;;;1703207;84;21032;-69
2022/06/11 03:19:18;;;;;;;16.55;10.45;;;;;;;;;;1703158;84;21040;-69
2022/06/11 03:21:44;;;;;;;13.32;9.43;;;;;;;;;;1703264;84;21598;-69
2022/06/11 03:24:11;;;;;;;15.28;9.50;;;;;;;;;;1678926;84;21580;-69
2022/06/11 03:26:38;;;;;;;11.60;8.43;;;;;;;;;;1675907;84;21099;-69
2022/06/11 03:29:05;;;;;;;14.03;8.63;;;;;;;;;;1670590;86;21622;-69
2022/06/11 03:31:32;;;;;;;15.65;8.93;;;;;;;;;;1652684;86;21102;-70
2022/06/11 03:33:58;;;;;;;11.90;9.25;;;;;;;;;;1651784;84;21051;-69
2022/06/11 03:36:24;;;;;;;14.13;9.03;;;;;;;;;;1672072;86;21609;-69
2022/06/11 03:38:50;;;;;;;11.43;9.15;;;;;;;;;;1671999;86;21328;-70
2022/06/11 03:41:16;;;;;;;13.15;8.65;;;;;;;;;;1671583;86;21060;-69
2022/06/11 03:43:42;;;;;;;11.68;7.92;;;;;;;;;;1653223;87;21067;-69
2022/06/11 03:46:10;;;;;;;14.33;8.43;;;;;;;;;;1701610;84;21074;-69
2022/06/11 03:48:37;;;;;;;11.93;8.83;;;;;;;;;;1705784;84;21050;-69
2022/06/11 03:51:03;;;;;;;10.50;8.58;;;;;;;;;;1687833;84;21067;-70
2022/06/11 03:53:30;;;;;;;12.10;8.60;;;;;;;;;;1679603;84;21614;-70
2022/06/11 03:55:56;;;;;;;13.85;8.33;;;;;;;;;;1704537;84;21083;-70
2022/06/11 03:58:22;;;;;;;9.65;6.72;;;;;;;;;;1689177;84;21007;-70
2022/06/11 04:03:33;;;;;;;7.47;6.17;;;;;;;;;;1705984;83;21028;-70
2022/06/11 04:05:59;;;;;;;8.08;5.72;;;;;;;;;;1710158;84;21095;-70
2022/06/11 04:08:25;;;;;;;8.78;5.75;;;;;;;;;;1682752;84;21048;-70
2022/06/11 04:10:52;;;;;;;7.85;6.40;;;;;;;;;;1656614;87;20990;-70
2022/06/11 04:13:18;;;;;;;7.55;5.60;;;;;;;;;;1628611;88;21079;-70
2022/06/11 04:15:45;;;;;;;6.95;5.80;;;;;;;;;;1676089;85;21115;-70
2022/06/11 04:18:19;;;;;;;6.72;5.45;;;;;;;;;;1696762;84;21031;-71
2022/06/11 04:20:45;;;;;;;7.35;5.67;;;;;;;;;;1693759;84;21547;-71
2022/06/11 04:23:11;;;;;;;8.93;5.58;;;;;;;;;;1676315;85;21027;-71
2022/06/11 04:25:37;;;;;;;8.68;5.42;;;;;;;;;;1676222;85;21032;-71
2022/06/11 04:28:03;;;;;;;9.70;5.83;;;;;;;;;;1694448;84;20969;-71
2022/06/11 04:30:30;;;;;;;8.05;4.97;;;;;;;;;;1692325;84;21066;-71
2022/06/11 04:32:56;;;;;;;10.10;5.40;;;;;;;;;;1648957;87;21051;-71
2022/06/11 04:35:22;;;;;;;10.03;5.50;;;;;;;;;;1672275;85;21067;-71
2022/06/11 04:37:48;;;;;;;9.40;5.42;;;;;;;;;;1692368;84;21650;-71
2022/06/11 04:40:15;;;;;;;8.33;5.00;;;;;;;;;;1674799;84;21079;-70
2022/06/11 04:42:41;;;;;;;7.53;4.80;;;;;;;;;;1657858;85;21039;-71
2022/06/11 04:45:07;;;;;;;7.78;4.80;;;;;;;;;;1658135;85;21063;-71
2022/06/11 04:47:35;;;;;;;8.45;5.05;;;;;;;;;;1683534;84;21043;-71
2022/06/11 04:50:01;;;;;;;9.60;5.65;;;;;;;;;;1683469;85;21023;-71
2022/06/11 04:52:29;;;;;;;12.85;6.00;;;;;;;;;;1653674;87;21068;-71
2022/06/11 04:54:55;;;;;;;13.32;6.10;;;;;;;;;;1655415;87;21067;-70
2022/06/11 04:57:21;;;;;;;12.90;5.55;;;;;;;;;;1657275;85;21054;-72
2022/06/11 04:59:47;;;;;;;15.15;5.90;;;;;;;;;;1689188;84;21634;-72
2022/06/11 05:02:13;;;;;;;12.23;5.58;;;;;;;;;;1674859;85;21087;-72
2022/06/11 05:04:39;;;;;;;11.57;6.33;;;;;;;;;;1669906;83;21189;-71
2022/06/11 05:07:05;;;;;;;8.25;5.10;;;;;;;;;;1670455;85;21067;-71
2022/06/11 05:09:32;;;;;;;13.90;5.25;;;;;;;;;;1655544;87;21028;-72
2022/06/11 05:11:58;;;;;;;11.38;4.53;;;;;;;;;;1625705;88;21096;-71
2022/06/11 05:14:24;;;;;;;8.93;4.17;;;;;;;;;;1655028;85;21546;-71
2022/06/11 05:16:50;;;;;;;6.47;4.47;;;;;;;;;;1627012;88;21614;-72
2022/06/11 05:19:18;;;;;;;6.03;4.55;;;;;;;;;;1655084;87;21099;-72
2022/06/11 05:21:45;;;;;;;6.42;4.28;;;;;;;;;;1627119;88;21095;-71
2022/06/11 05:24:10;;;;;;;5.92;4.50;;;;;;;;;;1655574;85;21573;-72
2022/06/11 05:26:39;;;;;;;7.72;4.33;;;;;;;;;;1607504;88;21088;-72
2022/06/11 05:29:05;;;;;;;7.12;4.45;;;;;;;;;;1602240;89;21084;-72
2022/06/11 05:31:32;;;;;;;7.50;4.60;;;;;;;;;;1602532;89;21049;-71
2022/06/11 05:33:58;;;;;;;10.78;8.58;;;;;;;;;;1627391;88;21568;-71
2022/06/11 05:36:24;;;;;;;7.80;4.87;;;;;;;;;;1681858;85;21032;-72
2022/06/11 05:38:50;;;;;;;7.85;4.50;;;;;;;;;;1650206;87;21075;-71
2022/06/11 05:41:16;;;;;;;6.67;4.90;;;;;;;;;;1655391;87;21123;-70
2022/06/11 05:43:44;;;;;;;6.72;4.60;;;;;;;;;;1649956;87;21127;-70
2022/06/11 05:46:17;;;;;;;8.95;5.15;;;;;;;;;;1679286;85;21535;-70
2022/06/11 05:48:45;;;;;;;9.83;5.10;;;;;;;;;;1628065;87;21056;-70
2022/06/11 05:51:11;;;;;;;6.90;4.47;;;;;;;;;;1648310;87;21082;-71
2022/06/11 05:53:38;;;;;;;7.53;5.00;;;;;;;;;;1655344;87;21583;-73
2022/06/11 05:56:05;;;;;;;7.20;4.80;;;;;;;;;;1674672;85;21420;-72
2022/06/11 05:58:34;;;;;;;7.00;4.70;;;;;;;;;;1684775;85;21579;-71
2022/06/11 06:01:00;;;;;;;8.28;5.40;;;;;;;;;;1637256;87;21054;-71
2022/06/11 06:03:26;;;;;;;21.68;6.72;;;;;;;;;;1680763;85;21211;-72
2022/06/11 06:05:52;;;;;;;12.47;5.25;;;;;;;;;;1650553;85;21631;-72
2022/06/11 06:08:18;;;;;;;10.80;6.70;;;;;;;;;;1656024;86;21073;-72
2022/06/11 06:10:45;;;;;;;10.28;6.10;;;;;;;;;;1655712;87;21099;-72
2022/06/11 06:15:56;;;;;;;14.80;7.35;;;;;;;;;;1663575;85;21095;-71
2022/06/11 06:18:24;;;;;;;12.95;7.70;;;;;;;;;;1648864;87;21127;-72
2022/06/11 06:20:50;;;;;;;11.43;7.33;;;;;;;;;;1647464;87;21099;-72
2022/06/11 06:23:16;;;;;;;10.48;7.65;;;;;;;;;;1635098;87;21099;-71
2022/06/11 06:25:42;;;;;;;13.75;12.13;;;;;;;;;;1665651;85;21075;-71
2022/06/11 06:28:10;;;;;;;12.25;10.30;;;;;;;;;;1655745;87;21110;-71
2022/06/11 06:30:36;;;;;;;16.42;9.80;;;;;;;;;;1655772;85;21053;-71
2022/06/11 06:33:02;;;;;;;11.03;8.85;;;;;;;;;;1655223;85;21063;-71
2022/06/11 06:35:29;;;;;;;15.23;8.93;;;;;;;;;;1657809;85;21043;-70
2022/06/11 06:37:55;;;;;;;15.03;9.30;;;;;;;;;;1656684;85;20993;-72
2022/06/11 06:40:21;;;;;;;14.15;8.80;;;;;;;;;;1655898;85;21127;-71
2022/06/11 06:42:48;;;;;;;11.83;8.00;;;;;;;;;;1651860;85;21078;-70
2022/06/11 06:45:15;;;;;;;11.48;7.28;;;;;;;;;;1648708;85;21000;-72
2022/06/11 06:47:43;;;;;;;12.53;8.15;;;;;;;;;;1645537;87;21093;-70
2022/06/11 06:50:10;;;;;;;11.90;9.88;;;;;;;;;;1651720;87;21118;-70
2022/06/11 06:52:36;;;;;;;12.35;9.28;;;;;;;;;;1665072;85;21017;-70
2022/06/11 06:55:02;;;;;;;13.53;9.73;;;;;;;;;;1644263;85;22201;-70
2022/06/11 06:57:29;;;;;;;12.65;9.10;;;;;;;;;;1666567;85;21047;-72
2022/06/11 06:59:56;;;;;;;12.82;8.48;;;;;;;;;;1653862;87;21123;-70
2022/06/11 07:02:22;;;;;;;10.25;8.35;;;;;;;;;;1655888;87;21678;-71
2022/06/11 07:04:48;;;;;;;12.75;8.35;;;;;;;;;;1653406;85;21115;-71
2022/06/11 07:07:14;;;;;;;11.15;8.33;;;;;;;;;;1635741;86;21055;-71
2022/06/11 07:09:40;;;;;;;11.28;8.65;;;;;;;;;;1652150;85;21049;-71
2022/06/11 07:12:07;;;;;;;12.25;8.88;;;;;;;;;;1641066;87;21054;-70
2022/06/11 07:14:33;;;;;;;10.00;8.38;;;;;;;;;;1661429;85;21035;-69
2022/06/11 07:17:00;;;;;;;11.08;8.08;;;;;;;;;;1639947;85;21051;-71
2022/06/11 07:19:30;;;;;;;9.80;7.53;;;;;;;;;;1652559;85;21040;-71
2022/06/11 07:21:56;;;;;;;9.95;7.20;;;;;;;;;;1654162;87;21044;-70
2022/06/11 07:24:24;;;;;;;11.85;7.58;;;;;;;;;;1654209;87;21077;-71
2022/06/11 07:26:54;;;;;;;9.53;7.47;;;;;;;;;;1645146;87;21129;-71
2022/06/11 07:29:22;;;;;;;11.33;6.28;;;;;;;;;;1646419;87;21051;-71
2022/06/11 07:31:49;;;;;;;10.40;7.92;;;;;;;;;;1647003;87;21044;-72
2022/06/11 07:34:15;;;;;;;11.93;7.97;;;;;;;;;;1652693;87;21035;-71
2022/06/11 07:36:42;;;;;;;10.00;8.13;;;;;;;;;;1652538;85;21040;-71
2022/06/11 07:39:08;;;;;;;9.28;6.17;;;;;;;;;;1647282;86;21536;-73
2022/06/11 07:41:34;;;;;;;10.53;6.40;;;;;;;;;;1653192;87;20994;-69
2022/06/11 07:44:01;;;;;;;8.00;5.78;;;;;;;;;;1653673;87;21542;-68
2022/06/11 07:46:27;;;;;;;8.43;7.08;;;;;;;;;;1653204;87;21020;-68
2022/06/11 07:48:53;;;;;;;9.70;6.47;;;;;;;;;;1651434;87;21032;-68
2022/06/11 07:51:20;;;;;;;11.75;7.58;;;;;;;;;;1642467;87;21048;-72
2022/06/11 07:53:46;;;;;;;10.68;7.45;;;;;;;;;;1650747;86;21064;-71
2022/06/11 07:56:12;;;;;;;7.47;5.60;;;;;;;;;;1636175;85;21551;-68
2022/06/11 07:58:39;;;;;;;7.85;4.75;;;;;;;;;;1634558;85;21108;-68
2022/06/11 08:01:05;;;;;;;6.67;4.60;;;;;;;;;;1655346;85;21076;-68
2022/06/11 08:03:32;;;;;;;5.95;4.22;;;;;;;;;;1654236;87;21091;-67
2022/06/11 08:05:59;;;;;;;8.65;4.37;;;;;;;;;;1660912;84;21091;-68
2022/06/11 08:08:25;;;;;;;9.73;3.92;;;;;;;;;;1676115;85;21535;-68
2022/06/11 08:10:51;;;;;;;5.83;3.37;;;;;;;;;;1699405;84;21523;-67
2022/06/11 08:13:17;;;;;;;7.00;3.22;;;;;;;;;;1699803;84;21540;-68
2022/06/11 08:15:44;;;;;;;4.62;3.77;;;;;;;;;;1697704;84;21555;-67
2022/06/11 08:18:12;;;;;;;5.60;3.77;;;;;;;;;;1699895;84;21083;-68
2022/06/11 08:20:38;;;;;;;29.50;5.90;;;;;;;;;;1699988;84;21087;-68
2022/06/11 08:23:05;;;;;;;6.67;4.85;;;;;;;;;;1694547;84;21035;-68
2022/06/11 08:25:31;;;;;;;7.87;4.83;;;;;;;;;;1685672;84;21053;-69
2022/06/11 08:27:57;;;;;;;6.58;4.78;;;;;;;;;;1685104;85;21524;-68
2022/06/11 08:30:24;;;;;;;6.90;5.47;;;;;;;;;;1684870;84;21108;-68
2022/06/11 08:32:50;;;;;;;7.90;4.80;;;;;;;;;;1710871;84;21118;-68
2022/06/11 08:35:18;;;;;;;9.23;4.85;;;;;;;;;;1709785;84;21071;-68
2022/06/11 08:37:44;;;;;;;6.05;4.60;;;;;;;;;;1711607;84;21008;-68
2022/06/11 08:40:12;;;;;;;7.42;4.70;;;;;;;;;;1711478;84;21134;-68
2022/06/11 08:42:39;;;;;;;8.55;4.42;;;;;;;;;;1709450;84;21091;-68
2022/06/11 08:45:14;;;;;;;7.08;5.25;;;;;;;;;;1710316;84;21086;-68
2022/06/11 08:47:42;;;;;;;7.00;5.30;;;;;;;;;;1711730;84;21039;-68
2022/06/11 08:50:12;;;;;;;6.08;4.62;;;;;;;;;;1710753;84;21077;-68
2022/06/11 08:52:39;;;;;;;23.55;6.45;;;;;;;;;;1711698;84;21174;-68
2022/06/11 08:55:05;;;;;;;6.10;4.78;;;;;;;;;;1711632;84;21023;-68
2022/06/11 08:57:39;;;;;;;7.42;5.03;;;;;;;;;;1711671;84;21039;-68
2022/06/11 09:00:19;;;;;;;7.87;5.33;;;;;;;;;;1707781;84;21060;-68
2022/06/11 09:02:47;;;;;;;6.87;4.90;;;;;;;;;;1657437;85;21087;-68
2022/06/11 09:05:33;;;;;;;7.75;5.05;;;;;;;;;;1629864;88;21071;-67
2022/06/11 09:08:16;;;;;;;9.63;4.80;;;;;;;;;;1648716;87;21570;-68
2022/06/11 09:10:53;;;;;;;8.98;4.70;;;;;;;;;;1668392;84;21079;-69
2022/06/11 09:13:22;;;;;;;6.75;4.92;;;;;;;;;;1700192;84;21136;-68
2022/06/11 09:15:56;;;;;;;17.27;5.72;;;;;;;;;;1699787;84;21083;-68
2022/06/11 09:18:43;;;;;;;6.87;4.97;;;;;;;;;;1700157;84;21551;-68
2022/06/11 09:21:23;;;;;;;8.65;5.37;;;;;;;;;;1698020;84;21200;-68
2022/06/11 09:24:09;;;;;;;7.62;4.92;;;;;;;;;;1693920;84;21111;-68
2022/06/11 09:26:50;;;;;;;9.08;5.28;;;;;;;;;;1675991;86;21031;-68
2022/06/11 09:29:23;;;;;;;6.97;4.78;;;;;;;;;;1684959;85;21012;-68
2022/06/11 09:32:10;;;;;;;7.15;5.28;;;;;;;;;;1684695;85;22237;-68
2022/06/11 09:34:39;;;;;;;6.33;4.83;;;;;;;;;;1616610;87;21102;-68
2022/06/11 09:37:07;;;;;;;9.63;5.53;;;;;;;;;;1599426;90;21114;-68
2022/06/11 09:39:44;;;;;;;6.60;4.58;;;;;;;;;;1621659;86;21111;-68
2022/06/11 09:42:15;;;;;;;6.70;4.33;;;;;;;;;;1702175;84;21142;-68
2022/06/11 09:45:01;;;;;;;9.97;5.37;;;;;;;;;;1711679;84;21055;-69
2022/06/11 09:47:29;;;;;;;7.15;5.03;;;;;;;;;;1711164;84;21515;-67
2022/06/11 09:50:01;;;;;;;6.37;4.72;;;;;;;;;;1711408;84;22201;-68
2022/06/11 09:52:35;;;;;;;6.37;5.12;;;;;;;;;;1710452;84;21059;-69
2022/06/11 09:55:06;;;;;;;15.65;5.58;;;;;;;;;;1711870;84;21060;-67
2022/06/11 09:57:40;;;;;;;13.65;6.40;;;;;;;;;;1711222;84;21055;-68
2022/06/11 10:00:14;;;;;;;7.15;5.08;;;;;;;;;;1711379;84;21557;-68
2022/06/11 10:05:19;;;;;;;7.03;5.75;;;;;;;;;;1705285;84;21090;-71
2022/06/11 10:07:48;;;;;;;8.15;5.33;;;;;;;;;;1684622;83;21031;-67
2022/06/11 10:10:15;;;;;;;8.08;5.50;;;;;;;;;;1684905;84;21033;-68
2022/06/11 10:12:50;;;;;;;8.35;5.35;;;;;;;;;;1652384;87;21111;-71
2022/06/11 10:15:18;;;;;;;9.25;5.53;;;;;;;;;;1644313;85;22064;-67
2022/06/11 10:17:52;;;;;;;8.63;6.50;;;;;;;;;;1674522;85;21115;-68
2022/06/11 10:20:28;;;;;;;8.60;5.55;;;;;;;;;;1673157;85;22171;-67
2022/06/11 10:22:57;;;;;;;8.68;5.83;;;;;;;;;;1659110;85;21090;-66
2022/06/11 10:25:28;;;;;;;8.60;6.00;;;;;;;;;;1650044;85;21107;-67
2022/06/11 10:28:01;;;;;;;6.10;5.35;;;;;;;;;;1630628;87;21063;-67
2022/06/11 10:30:47;;;;;;;8.08;5.35;;;;;;;;;;1629381;87;21060;-67
2022/06/11 10:33:27;;;;;;;6.87;5.40;;;;;;;;;;1621992;88;21547;-69
2022/06/11 10:38:45;;;;;;;9.08;5.70;;;;;;;;;;1793409;78;23066;-70
2022/06/11 10:41:13;;;;;;;7.25;5.05;;;;;;;;;;1801667;78;21069;-72
2022/06/11 10:43:41;;;;;;;8.78;5.55;;;;;;;;;;1801039;78;21016;-70
2022/06/11 10:46:09;;;;;;;7.85;5.10;;;;;;;;;;1797695;78;21152;-69
2022/06/11 10:48:37;;;;;;;9.15;6.90;;;;;;;;;;1795869;78;21024;-69
2022/06/11 10:51:05;;;;;;;9.40;6.35;;;;;;;;;;1800741;78;21062;-71
2022/06/11 10:53:34;;;;;;;9.28;5.80;;;;;;;;;;1803386;78;22016;-75
2022/06/11 10:56:01;;;;;;;8.50;5.70;;;;;;;;;;1791309;80;21519;-73
2022/06/11 10:58:30;;;;;;;7.92;5.78;;;;;;;;;;1782990;78;21061;-72
2022/06/11 11:01:03;;;;;;;7.80;5.05;;;;;;;;;;1792787;78;21015;-74
2022/06/11 11:03:37;;;;;;;8.98;5.45;;;;;;;;;;1793293;78;21075;-74
2022/06/11 11:06:06;;;;;;;7.58;5.53;;;;;;;;;;1790603;78;21041;-74
2022/06/11 11:08:37;;;;;;;9.05;5.60;;;;;;;;;;1776447;78;21008;-75
2022/06/11 11:11:05;;;;;;;9.83;5.28;;;;;;;;;;1787566;79;21006;-74
2022/06/11 11:13:36;;;;;;;8.13;5.22;;;;;;;;;;1802684;79;21379;-74
2022/06/11 11:16:10;;;;;;;19.82;15.08;;;;;;;;;;1777221;81;21304;-73
2022/06/11 11:18:38;;;;;;;22.00;16.52;;;;;;;;;;1789833;79;21008;-77
2022/06/11 11:21:04;;;;;;;9.63;7.45;;;;;;;;;;1802900;78;21114;-76
2022/06/11 11:23:32;;;;;;;10.65;7.08;;;;;;;;;;1805410;79;20957;-77
2022/06/11 11:26:17;;;;;;;30.52;21.15;;;;;;;;;;1799321;79;21062;-77
2022/06/11 11:28:45;;;;;;;30.65;20.90;;;;;;;;;;1789579;80;21005;-75
2022/06/11 11:31:20;;;;;;;34.43;27.30;;;;;;;;;;1802875;79;21101;-72
2022/06/11 11:34:05;;;;;;;17.05;12.95;;;;;;;;;;1816700;78;21052;-73
2022/06/11 11:36:31;;;;;;;11.55;9.43;;;;;;;;;;1800039;78;21476;-72
2022/06/11 11:39:15;;;;;;;9.80;7.80;;;;;;;;;;1793719;79;21576;-72
2022/06/11 11:41:53;;;;;;;20.10;6.85;;;;;;;;;;1793022;80;21001;-74
2022/06/11 11:44:20;;;;;;;11.12;7.80;;;;;;;;;;1780559;80;20987;-73
2022/06/11 11:46:48;;;;;;;10.50;6.47;;;;;;;;;;1775177;81;21003;-72
2022/06/11 11:49:19;;;;;;;7.60;5.80;;;;;;;;;;1785916;79;21487;-72
2022/06/11 11:51:45;;;;;;;11.65;6.80;;;;;;;;;;1780355;79;21072;-73
2022/06/11 11:54:17;;;;;;;10.20;6.97;;;;;;;;;;1781925;79;21007;-72
2022/06/11 11:56:48;;;;;;;12.70;6.37;;;;;;;;;;1779021;79;21577;-73
2022/06/11 11:59:22;;;;;;;9.80;6.20;;;;;;;;;;1775896;79;21157;-73
2022/06/11 12:01:49;;;;;;;9.25;6.28;;;;;;;;;;1781846;79;21065;-72
2022/06/11 12:04:18;;;;;;;9.28;6.22;;;;;;;;;;1790124;79;21485;-75
2022/06/11 12:06:45;;;;;;;12.28;6.28;;;;;;;;;;1782745;79;21054;-74
2022/06/11 12:09:18;;;;;;;7.95;6.00;;;;;;;;;;1787930;79;21052;-75
2022/06/11 12:11:47;;;;;;;7.03;5.60;;;;;;;;;;1794467;79;20994;-74
2022/06/11 12:14:14;;;;;;;7.03;5.33;;;;;;;;;;1785590;79;21069;-74
2022/06/11 12:16:43;;;;;;;7.08;5.62;;;;;;;;;;1806386;79;21520;-71
2022/06/11 12:19:15;;;;;;;7.60;5.50;;;;;;;;;;1798721;79;21644;-72
2022/06/11 12:21:42;;;;;;;6.62;4.72;;;;;;;;;;1790797;79;21009;-73
2022/06/11 12:24:13;;;;;;;6.47;5.35;;;;;;;;;;1783782;79;21620;-73
2022/06/11 12:26:41;;;;;;;8.17;6.10;;;;;;;;;;1793765;79;21016;-72
2022/06/11 12:29:09;;;;;;;6.75;5.50;;;;;;;;;;1783306;79;21037;-73
2022/06/11 12:31:35;;;;;;;5.40;4.60;;;;;;;;;;1764108;79;21026;-72
2022/06/11 12:34:04;;;;;;;6.22;5.08;;;;;;;;;;1775055;79;20953;-75
2022/06/11 12:36:38;;;;;;;7.65;5.50;;;;;;;;;;1776711;79;21092;-76
2022/06/11 12:39:06;;;;;;;8.43;5.15;;;;;;;;;;1770067;80;21037;-76
2022/06/11 12:41:52;;;;;;;6.87;4.92;;;;;;;;;;1761182;80;21013;-76
2022/06/11 12:44:27;;;;;;;6.95;5.00;;;;;;;;;;1693644;84;21180;-83
2022/06/11 12:46:56;;;;;;;7.60;5.72;;;;;;;;;;1705683;84;21093;-83
2022/06/11 12:49:23;;;;;;;5.60;4.35;;;;;;;;;;1743931;80;21454;-80
2022/06/11 12:52:02;;;;;;;8.03;5.28;;;;;;;;;;1772078;80;21047;-81
2022/06/11 12:54:30;;;;;;;7.03;5.28;;;;;;;;;;1786481;80;21587;-81
2022/06/11 12:57:15;;;;;;;8.85;5.58;;;;;;;;;;1768622;81;21544;-80
2022/06/11 12:59:44;;;;;;;8.25;5.22;;;;;;;;;;1774192;80;21057;-80
2022/06/11 13:02:18;;;;;;;7.12;4.92;;;;;;;;;;1786942;80;21576;-82
2022/06/11 13:04:46;;;;;;;9.93;5.35;;;;;;;;;;1768285;80;21091;-82
2022/06/11 13:07:21;;;;;;;6.20;5.10;;;;;;;;;;1782361;80;21050;-77
2022/06/11 13:09:49;;;;;;;6.20;4.85;;;;;;;;;;1782136;80;21065;-80
2022/06/11 13:12:30;;;;;;;12.03;8.98;;;;;;;;;;1779207;79;21029;-78
2022/06/11 13:15:02;;;;;;;7.00;5.70;;;;;;;;;;1782648;79;21024;-77
2022/06/11 13:17:33;;;;;;;6.43;5.20;;;;;;;;;;1783160;80;21076;-79
2022/06/11 13:20:02;;;;;;;10.97;5.90;;;;;;;;;;1764000;80;21059;-79
2022/06/11 13:22:30;;;;;;;7.12;5.40;;;;;;;;;;1760001;80;21100;-79
2022/06/11 13:24:59;;;;;;;13.48;6.10;;;;;;;;;;1778147;80;21094;-78
2022/06/11 13:27:33;;;;;;;8.78;5.35;;;;;;;;;;1782112;80;21060;-78
2022/06/11 13:30:13;;;;;;;9.85;5.53;;;;;;;;;;1788105;80;21032;-78
2022/06/11 13:32:41;;;;;;;8.58;4.85;;;;;;;;;;1779354;80;21607;-76
2022/06/11 13:35:10;;;;;;;6.35;4.25;;;;;;;;;;1787395;80;21520;-79
2022/06/11 13:37:55;;;;;;;25.60;6.30;;;;;;;;;;1784534;79;21521;-76
2022/06/11 13:40:26;;;;;;;14.10;12.65;;;;;;;;;;1794197;79;21045;-76
2022/06/11 13:42:57;;;;;;;16.67;14.95;;;;;;;;;;1782044;79;22130;-76
2022/06/11 13:45:36;;;;;;;11.38;5.72;;;;;;;;;;1793088;80;21125;-82
2022/06/11 13:48:12;;;;;;;8.03;5.17;;;;;;;;;;1789836;80;21294;-78
2022/06/11 13:50:40;;;;;;;6.87;4.35;;;;;;;;;;1786542;80;21069;-79
2022/06/11 13:55:56;;;;;;;8.50;4.65;;;;;;;;;;1794514;80;20951;-80
2022/06/11 13:58:37;;;;;;;5.72;4.35;;;;;;;;;;1712141;84;21583;-76
2022/06/11 14:01:22;;;;;;;6.10;3.80;;;;;;;;;;1774088;80;21091;-76
2022/06/11 14:03:50;;;;;;;5.60;4.22;;;;;;;;;;1773297;80;21560;-76
2022/06/11 14:06:16;;;;;;;6.17;4.20;;;;;;;;;;1789746;80;21100;-78
2022/06/11 14:08:50;;;;;;;5.97;4.12;;;;;;;;;;1775851;80;21033;-77
2022/06/11 14:11:22;;;;;;;7.33;4.67;;;;;;;;;;1788744;80;21254;-77
2022/06/11 14:13:54;;;;;;;5.42;4.20;;;;;;;;;;1770272;80;20998;-79
2022/06/11 14:16:33;;;;;;;7.15;4.80;;;;;;;;;;1799954;80;21022;-75
2022/06/11 14:19:00;;;;;;;10.93;3.83;;;;;;;;;;1769336;81;21057;-77
2022/06/11 14:21:40;;;;;;;8.30;4.25;;;;;;;;;;1769858;80;22111;-82
2022/06/11 14:24:08;;;;;;;5.83;4.20;;;;;;;;;;1792646;80;21077;-82
2022/06/11 14:26:48;;;;;;;6.58;4.60;;;;;;;;;;1802007;80;21042;-76
2022/06/11 14:29:22;;;;;;;8.25;4.10;;;;;;;;;;1773832;80;21018;-81
2022/06/11 14:31:50;;;;;;;7.65;4.95;;;;;;;;;;1782083;78;21064;-81
2022/06/11 14:34:20;;;;;;;6.55;4.72;;;;;;;;;;1792522;79;20978;-79
2022/06/11 14:36:48;;;;;;;5.72;4.75;;;;;;;;;;1784720;79;21577;-75
2022/06/11 14:39:19;;;;;;;7.42;4.65;;;;;;;;;;1780415;80;21068;-77
2022/06/11 14:41:46;;;;;;;7.22;4.83;;;;;;;;;;1756724;80;20962;-81
2022/06/11 14:44:15;;;;;;;9.05;4.78;;;;;;;;;;1769002;79;21031;-78
2022/06/11 14:46:43;;;;;;;28.57;7.08;;;;;;;;;;1757751;80;21044;-77
2022/06/11 14:49:14;;;;;;;7.58;4.70;;;;;;;;;;1794475;80;20990;-77
2022/06/11 14:51:41;;;;;;;8.25;4.47;;;;;;;;;;1786638;79;21086;-75
2022/06/11 14:54:10;;;;;;;5.55;4.22;;;;;;;;;;1766048;80;21025;-75
2022/06/11 14:56:45;;;;;;;14.30;5.62;;;;;;;;;;1768215;80;21075;-77
2022/06/11 14:59:25;;;;;;;7.17;5.00;;;;;;;;;;1782189;80;21009;-78
2022/06/11 15:01:59;;;;;;;9.30;6.42;;;;;;;;;;1788861;79;21100;-79
2022/06/11 15:04:30;;;;;;;6.78;5.28;;;;;;;;;;1790221;80;21571;-79